Time;durP1;ratioP1;P1;durP2;ratioP2;P2;SDS_P1;SDS_P2;PMS_P1;PMS_P2;Temp;Humidity;BMP_temperature;BMP_pressure;BME280_temperature;BME280_humidity;BME280_pressure;Samples;Min_cycle;Max_cycle;Signal;HPM_P1;HPM_P2
2022/04/01 00:00:08;;;;;;;29.30;6.15;;;;;;;10.21;100.00;89438.66;4992590;28;20500;-64
2022/04/01 00:02:35;;;;;;;24.17;5.95;;;;;;;10.08;100.00;89423.88;4992686;28;20416;-64
2022/04/01 00:05:01;;;;;;;27.95;6.75;;;;;;;10.06;100.00;89416.25;4992761;28;20038;-64
2022/04/01 00:07:26;;;;;;;18.25;5.72;;;;;;;10.07;100.00;89406.41;4991379;28;20386;-64
2022/04/01 00:09:52;;;;;;;18.63;5.63;;;;;;;10.02;100.00;89415.41;4992403;28;20030;-64
2022/04/01 00:12:17;;;;;;;16.13;5.20;;;;;;;10.00;100.00;89390.28;4992395;28;20027;-64
2022/04/01 00:14:43;;;;;;;20.60;7.30;;;;;;;10.01;100.00;89400.56;4992387;28;20030;-64
2022/04/01 00:17:08;;;;;;;18.10;6.47;;;;;;;10.04;100.00;89404.44;4991301;28;20038;-65
2022/04/01 00:19:34;;;;;;;27.63;9.73;;;;;;;10.11;100.00;89409.94;4992310;28;20030;-63
2022/04/01 00:21:59;;;;;;;46.95;16.48;;;;;;;9.93;100.00;89393.53;4992440;28;20416;-64
2022/04/01 00:24:25;;;;;;;21.63;7.35;;;;;;;9.80;100.00;89376.91;4992356;28;20514;-64
2022/04/01 00:26:50;;;;;;;15.02;6.22;;;;;;;9.69;100.00;89367.13;4992419;28;20040;-64
2022/04/01 00:29:16;;;;;;;27.80;7.25;;;;;;;9.70;100.00;89364.13;4992313;28;20113;-64
2022/04/01 00:31:43;;;;;;;22.70;7.80;;;;;;;9.78;100.00;89371.19;4992462;28;20038;-63
2022/04/01 00:34:17;;;;;;;28.80;7.15;;;;;;;9.89;100.00;89352.84;4992328;28;20042;-64
2022/04/01 00:36:45;;;;;;;20.98;6.70;;;;;;;10.02;100.00;89372.13;4992288;28;20054;-64
2022/04/01 00:39:12;;;;;;;24.85;6.57;;;;;;;10.11;100.00;89359.47;4989802;28;20077;-64
2022/04/01 00:41:38;;;;;;;23.00;6.10;;;;;;;10.12;100.00;89398.97;4992381;28;20436;-64
2022/04/01 00:44:22;;;;;;;20.83;5.90;;;;;;;10.06;100.00;89370.31;4992209;28;20030;-64
2022/04/01 00:46:53;;;;;;;27.67;7.22;;;;;;;9.88;100.00;89377.84;4991785;28;20516;-64
2022/04/01 00:49:19;;;;;;;32.60;8.52;;;;;;;9.61;100.00;89392.72;4991950;28;20080;-64
2022/04/01 00:51:48;;;;;;;36.22;13.55;;;;;;;9.42;100.00;89384.63;4992016;28;20045;-64
2022/04/01 00:54:14;;;;;;;28.42;8.50;;;;;;;9.33;100.00;89386.66;4991796;28;20042;-64
2022/04/01 00:56:40;;;;;;;40.72;13.93;;;;;;;9.30;100.00;89398.72;4991807;28;20034;-64
2022/04/01 00:59:08;;;;;;;30.35;9.75;;;;;;;9.28;100.00;89403.59;4991593;28;20489;-65
2022/04/01 01:01:34;;;;;;;24.65;8.15;;;;;;;9.14;100.00;89411.91;4991704;28;20042;-64
2022/04/01 01:04:02;;;;;;;28.95;7.18;;;;;;;9.13;100.00;89391.03;4991714;28;20357;-64
2022/04/01 01:06:29;;;;;;;18.27;6.68;;;;;;;9.16;100.00;89390.38;4991610;28;20061;-64
2022/04/01 01:08:56;;;;;;;22.60;6.93;;;;;;;9.04;100.00;89403.66;4991530;28;20034;-64
2022/04/01 01:11:22;;;;;;;27.40;8.68;;;;;;;9.01;100.00;89399.81;4991511;28;20121;-64
2022/04/01 01:13:48;;;;;;;16.13;5.95;;;;;;;8.85;100.00;89365.28;4991234;28;20050;-64
2022/04/01 01:16:14;;;;;;;17.35;5.32;;;;;;;8.92;100.00;89399.94;4991462;28;20515;-63
2022/04/01 01:18:40;;;;;;;16.17;4.40;;;;;;;8.80;100.00;89394.66;4991704;28;20034;-63
2022/04/01 01:21:09;;;;;;;13.27;3.85;;;;;;;8.88;100.00;89398.28;4990583;28;20132;-63
2022/04/01 01:23:36;;;;;;;20.88;5.70;;;;;;;8.72;100.00;89387.63;4991252;28;20030;-65
2022/04/01 01:26:02;;;;;;;88.68;28.45;;;;;;;8.65;100.00;89395.34;4991418;28;20061;-65
2022/04/01 01:28:28;;;;;;;38.97;13.00;;;;;;;8.49;100.00;89405.09;4991113;28;20038;-64
2022/04/01 01:30:54;;;;;;;22.17;6.85;;;;;;;8.46;100.00;89408.41;4991003;28;20030;-64
2022/04/01 01:33:21;;;;;;;24.05;7.78;;;;;;;8.39;100.00;89379.81;4991040;28;20074;-64
2022/04/01 01:35:47;;;;;;;44.60;14.13;;;;;;;8.43;100.00;89412.50;4990953;28;20030;-64
2022/04/01 01:38:17;;;;;;;31.20;7.97;;;;;;;8.49;100.00;89392.59;4991136;28;20469;-64
2022/04/01 01:40:43;;;;;;;25.00;6.63;;;;;;;8.51;100.00;89419.53;4990988;28;20034;-64
2022/04/01 01:43:08;;;;;;;19.65;5.38;;;;;;;8.51;100.00;89377.13;4991023;28;20048;-65
2022/04/01 01:45:34;;;;;;;21.40;5.50;;;;;;;8.56;100.00;89406.09;4991062;28;20034;-64
2022/04/01 01:47:59;;;;;;;23.20;5.50;;;;;;;8.67;100.00;89399.19;4991887;28;20428;-63
2022/04/01 01:55:52;;;;;;;32.63;6.38;;;;;;;8.83;100.00;89395.84;4992119;28;20052;-63
2022/04/01 01:58:18;;;;;;;26.95;6.85;;;;;;;8.77;100.00;89399.84;4992075;28;20034;-64
2022/04/01 02:00:45;;;;;;;26.02;7.22;;;;;;;8.76;100.00;89404.38;4991917;28;20035;-64
2022/04/01 02:03:11;;;;;;;27.27;7.13;;;;;;;8.68;100.00;89384.09;4992016;28;20046;-64
2022/04/01 02:05:37;;;;;;;22.80;6.95;;;;;;;8.63;100.00;89373.69;4991969;28;20034;-64
2022/04/01 02:08:05;;;;;;;38.83;7.53;;;;;;;8.62;100.00;89364.97;4991885;28;20125;-63
2022/04/01 02:10:31;;;;;;;30.08;7.03;;;;;;;8.63;100.00;89384.31;4991238;28;20042;-64
2022/04/01 02:12:58;;;;;;;34.92;8.20;;;;;;;8.60;100.00;89388.41;4991499;28;20499;-64
2022/04/01 02:15:26;;;;;;;41.78;7.45;;;;;;;8.62;100.00;89386.19;4991859;28;20129;-64
2022/04/01 02:17:51;;;;;;;29.15;6.82;;;;;;;8.62;100.00;89369.50;4991821;28;20122;-63
2022/04/01 02:20:17;;;;;;;32.50;7.35;;;;;;;8.57;100.00;89367.88;4991794;28;20129;-63
2022/04/01 02:22:44;;;;;;;26.27;7.25;;;;;;;8.48;100.00;89374.38;4991702;28;20117;-64
2022/04/01 02:25:11;;;;;;;29.73;7.43;;;;;;;8.45;100.00;89357.28;4991799;28;20081;-63
2022/04/01 02:27:38;;;;;;;25.73;6.45;;;;;;;8.42;100.00;89365.91;4991941;28;20042;-63
2022/04/01 02:30:10;;;;;;;37.58;7.68;;;;;;;8.35;100.00;89352.44;4991691;28;20050;-63
2022/04/01 02:32:40;;;;;;;40.00;9.85;;;;;;;8.28;100.00;89368.09;4994833;28;20038;-63
2022/04/01 02:35:07;;;;;;;32.47;10.20;;;;;;;8.30;100.00;89392.38;4995995;28;20057;-63
2022/04/01 02:37:33;;;;;;;22.08;6.72;;;;;;;8.30;100.00;89365.88;4995756;28;20081;-62
2022/04/01 02:39:59;;;;;;;33.25;7.45;;;;;;;8.28;100.00;89378.69;4995816;28;20460;-63
2022/04/01 02:42:24;;;;;;;26.00;7.50;;;;;;;8.24;100.00;89372.50;4995877;28;20568;-63
2022/04/01 02:44:50;;;;;;;25.63;6.97;;;;;;;8.40;100.00;89370.75;4995462;28;20038;-64
2022/04/01 02:47:16;;;;;;;37.80;7.88;;;;;;;8.40;100.00;89368.13;4995380;28;20038;-64
2022/04/01 02:49:42;;;;;;;39.65;7.63;;;;;;;8.32;100.00;89359.13;4995296;28;20045;-63
2022/04/01 02:52:07;;;;;;;30.58;8.52;;;;;;;8.29;100.00;89364.34;4994018;28;20088;-64
2022/04/01 02:54:34;;;;;;;27.17;7.20;;;;;;;8.26;100.00;89359.72;4995384;28;20038;-64
2022/04/01 02:57:00;;;;;;;32.83;6.80;;;;;;;8.33;100.00;89365.97;4995384;28;20049;-64
2022/04/01 02:59:26;;;;;;;39.17;7.63;;;;;;;8.28;100.00;89363.56;4995473;28;20038;-64
2022/04/01 03:01:51;;;;;;;33.05;8.57;;;;;;;8.40;100.00;89355.63;4995201;28;20038;-63
2022/04/01 03:04:17;;;;;;;36.55;8.88;;;;;;;8.40;100.00;89354.88;4994831;28;20047;-64
2022/04/01 03:06:43;;;;;;;36.50;9.07;;;;;;;8.36;100.00;89359.28;4995166;28;20046;-64
2022/04/01 03:09:12;;;;;;;29.33;8.45;;;;;;;8.22;100.00;89329.69;4994970;28;20042;-64
2022/04/01 03:11:41;;;;;;;32.75;9.13;;;;;;;7.95;100.00;89325.84;4995120;28;20839;-63
2022/04/01 03:14:08;;;;;;;41.45;8.63;;;;;;;8.05;100.00;89339.41;4993494;28;20504;-63
2022/04/01 03:16:34;;;;;;;29.83;7.15;;;;;;;7.96;100.00;89346.69;4994865;28;20081;-63
2022/04/01 03:19:01;;;;;;;39.42;8.32;;;;;;;7.92;100.00;89335.22;4994859;28;20034;-64
2022/04/01 03:21:28;;;;;;;34.88;7.60;;;;;;;7.90;100.00;89321.53;4994892;28;20038;-63
2022/04/01 03:23:54;;;;;;;35.15;9.27;;;;;;;7.87;100.00;89329.34;4994790;28;20042;-64
2022/04/01 03:26:23;;;;;;;36.25;8.20;;;;;;;7.78;100.00;89329.47;4994986;28;20034;-63
2022/04/01 03:28:48;;;;;;;48.88;9.68;;;;;;;7.68;100.00;89295.50;4994525;28;20046;-64
2022/04/01 03:31:15;;;;;;;48.25;10.13;;;;;;;7.80;100.00;89317.47;4994717;28;20504;-64
2022/04/01 03:33:41;;;;;;;49.92;11.23;;;;;;;7.92;100.00;89319.34;4994598;28;20046;-63
2022/04/01 03:36:08;;;;;;;63.00;14.73;;;;;;;8.15;100.00;89327.59;4994568;28;20034;-63
2022/04/01 03:38:34;;;;;;;72.70;15.38;;;;;;;8.22;100.00;89322.53;4994652;28;20077;-63
2022/04/01 03:41:01;;;;;;;65.75;15.27;;;;;;;8.31;100.00;89311.78;4994451;28;20038;-63
2022/04/01 03:43:26;;;;;;;84.20;18.00;;;;;;;8.33;100.00;89318.28;4993830;28;20049;-62
2022/04/01 03:45:54;;;;;;;86.50;19.30;;;;;;;8.45;100.00;89325.50;4994489;28;20081;-64
2022/04/01 03:48:35;;;;;;;73.25;12.55;;;;;;;8.94;100.00;89322.69;4994422;28;20425;-63
2022/04/01 03:51:04;;;;;;;70.22;13.20;;;;;;;9.32;100.00;89321.44;4994183;28;20061;-63
2022/04/01 03:53:32;;;;;;;74.38;16.23;;;;;;;9.30;100.00;89335.03;4994185;28;20038;-63
2022/04/01 03:55:59;;;;;;;67.93;18.52;;;;;;;9.16;100.00;89305.50;4994139;28;20042;-64
2022/04/01 03:58:34;;;;;;;71.63;15.90;;;;;;;9.14;100.00;89342.94;4994234;28;20479;-64
2022/04/01 04:01:02;;;;;;;73.60;14.25;;;;;;;9.13;100.00;89296.31;4994069;28;20108;-64
2022/04/01 04:03:33;;;;;;;69.72;16.17;;;;;;;9.16;100.00;89324.84;4994154;28;20066;-64
2022/04/01 04:06:00;;;;;;;66.43;15.20;;;;;;;9.26;100.00;89294.38;4994125;28;20036;-64
2022/04/01 04:08:26;;;;;;;67.07;14.52;;;;;;;9.25;100.00;89292.81;4994126;28;20065;-63
2022/04/01 04:10:53;;;;;;;82.35;15.05;;;;;;;9.27;100.00;89291.38;4993822;28;20077;-64
2022/04/01 04:13:20;;;;;;;66.57;13.63;;;;;;;9.38;100.00;89290.88;4993811;28;20053;-64
2022/04/01 04:15:50;;;;;;;78.75;14.18;;;;;;;9.34;100.00;89279.41;4993929;28;20085;-64
2022/04/01 04:18:18;;;;;;;90.55;14.25;;;;;;;9.38;100.00;89274.97;4993453;28;20026;-62
2022/04/01 04:21:05;;;;;;;93.03;18.48;;;;;;;9.50;100.00;89282.84;4993603;28;20381;-62
2022/04/01 04:23:47;;;;;;;83.07;19.40;;;;;;;9.35;100.00;89284.38;4993732;28;20035;-62
2022/04/01 04:26:15;;;;;;;83.45;21.50;;;;;;;9.37;100.00;89276.84;4993673;28;20054;-63
2022/04/01 04:28:50;;;;;;;96.47;18.73;;;;;;;9.59;100.00;89284.22;4993731;28;20045;-63
2022/04/01 04:31:22;;;;;;;88.43;18.30;;;;;;;9.61;100.00;89284.63;4993569;28;20050;-64
2022/04/01 04:33:47;;;;;;;76.97;17.60;;;;;;;9.49;100.00;89244.16;4993445;28;20030;-63
2022/04/01 04:36:19;;;;;;;72.90;14.70;;;;;;;9.69;100.00;89253.75;4993329;28;20049;-64
2022/04/01 04:38:47;;;;;;;78.03;14.80;;;;;;;9.93;100.00;89259.97;4993101;28;20500;-64
2022/04/01 04:41:12;;;;;;;75.70;13.65;;;;;;;10.22;100.00;89251.53;4993373;28;20041;-64
2022/04/01 04:43:40;;;;;;;90.93;19.27;;;;;;;11.05;100.00;89260.84;4993356;28;20030;-65
2022/04/01 04:46:07;;;;;;;84.93;25.33;;;;;;;11.41;100.00;89266.81;4993303;28;20065;-64
2022/04/01 04:48:34;;;;;;;73.22;16.88;;;;;;;11.66;100.00;89254.69;4992956;28;20022;-64
2022/04/01 04:51:02;;;;;;;61.83;14.32;;;;;;;11.96;98.85;89262.03;4993156;28;20038;-67
2022/04/01 04:53:31;;;;;;;83.15;20.38;;;;;;;12.29;92.75;89275.50;4993037;28;20026;-65
2022/04/01 04:56:02;;;;;;;71.22;15.05;;;;;;;12.41;93.99;89266.53;4992430;28;20072;-65
2022/04/01 04:58:39;;;;;;;73.40;14.98;;;;;;;12.69;92.81;89271.50;4992924;28;20081;-65
2022/04/01 05:01:34;;;;;;;64.90;15.07;;;;;;;12.29;98.83;89262.16;4993031;28;20038;-64
2022/04/01 05:04:39;;;;;;;65.28;11.93;;;;;;;12.45;92.88;89261.25;4991237;28;20357;-64
2022/04/01 05:07:26;;;;;;;65.70;13.40;;;;;;;13.37;86.88;89251.72;4992654;28;20472;-66
2022/04/01 05:10:08;;;;;;;87.15;22.67;;;;;;;14.20;85.87;89250.56;4992714;28;20026;-66
2022/04/01 05:12:58;;;;;;;67.85;17.98;;;;;;;14.21;83.63;89254.78;4992262;28;20129;-64
2022/04/01 05:15:36;;;;;;;82.65;19.73;;;;;;;14.24;84.60;89257.50;4992965;28;20065;-64
2022/04/01 05:18:15;;;;;;;79.43;16.92;;;;;;;13.83;87.23;89270.13;4992724;28;20105;-65
2022/04/01 05:20:55;;;;;;;81.57;18.10;;;;;;;13.72;86.59;89261.22;4992431;28;20065;-64
2022/04/01 05:23:34;;;;;;;76.25;15.57;;;;;;;14.45;84.40;89248.88;4992543;28;20053;-64
2022/04/01 05:26:11;;;;;;;74.93;16.23;;;;;;;15.69;77.62;89237.97;4992321;28;20041;-64
2022/04/01 05:28:51;;;;;;;62.72;12.43;;;;;;;16.12;67.56;89235.34;4992102;28;20045;-63
2022/04/01 05:31:34;;;;;;;48.92;8.35;;;;;;;16.13;62.91;89237.63;4970335;28;20042;-64
2022/04/01 05:34:18;;;;;;;64.18;10.45;;;;;;;16.97;61.94;89234.50;4972741;28;20564;-65
2022/04/01 05:36:45;;;;;;;62.00;10.23;;;;;;;18.36;55.29;89241.88;4972691;28;20042;-64
2022/04/01 05:39:14;;;;;;;83.75;15.85;;;;;;;19.13;54.45;89243.13;4972296;28;20062;-64
2022/04/01 05:41:41;;;;;;;72.82;14.45;;;;;;;19.78;52.35;89253.97;4972686;28;20027;-63
2022/04/01 05:44:09;;;;;;;62.50;11.73;;;;;;;19.72;51.33;89244.78;4972301;28;20161;-64
2022/04/01 05:46:37;;;;;;;60.67;12.27;;;;;;;20.60;49.40;89259.03;4972467;28;20413;-64
2022/04/01 05:49:03;;;;;;;70.18;13.55;;;;;;;21.30;48.62;89238.56;4972468;28;20031;-65
2022/04/01 05:51:32;;;;;;;82.38;18.83;;;;;;;22.67;45.42;89260.50;4972537;28;20085;-64
2022/04/01 05:53:58;;;;;;;69.00;13.00;;;;;;;23.57;41.75;89249.81;4972457;28;20126;-65
2022/04/01 05:56:24;;;;;;;64.15;12.13;;;;;;;21.67;44.10;89232.06;4972196;28;20101;-63
2022/04/01 05:58:50;;;;;;;76.72;14.55;;;;;;;21.00;44.82;89245.66;4971920;28;20081;-64
2022/04/01 06:01:21;;;;;;;83.75;20.48;;;;;;;21.85;45.79;89237.13;4972260;28;20082;-64
2022/04/01 06:04:07;;;;;;;85.13;14.50;;;;;;;23.17;43.20;89243.06;4972472;28;20031;-64
2022/04/01 06:06:42;;;;;;;79.47;17.50;;;;;;;25.26;38.91;89244.47;4961201;28;20051;-66
2022/04/01 06:09:33;;;;;;;74.30;15.32;;;;;;;26.43;37.36;89250.53;4972320;28;20089;-64
2022/04/01 06:12:17;;;;;;;80.60;16.52;;;;;;;23.59;41.37;89225.72;4972027;28;20563;-64
2022/04/01 06:14:54;;;;;;;72.97;13.63;;;;;;;22.82;43.56;89233.84;4971867;28;20126;-63
2022/04/01 06:17:28;;;;;;;66.22;13.32;;;;;;;25.49;40.38;89234.38;4970943;28;20529;-64
2022/04/01 06:20:03;;;;;;;89.65;16.08;;;;;;;26.83;37.96;89222.56;4972132;28;20035;-64
2022/04/01 06:22:33;;;;;;;90.82;16.23;;;;;;;28.29;34.49;89239.16;4972380;28;20022;-64
2022/04/01 06:25:16;;;;;;;86.35;15.35;;;;;;;29.22;32.08;89234.94;4972187;28;20031;-64
2022/04/01 06:28:24;;;;;;;46.78;10.95;;;;;;;26.76;32.49;89223.56;4972042;28;20042;-65
2022/04/01 06:30:54;;;;;;;67.57;10.65;;;;;;;23.98;35.24;89231.22;4971792;28;20054;-64
2022/04/01 06:33:43;;;;;;;67.97;10.57;;;;;;;24.55;34.79;89246.66;4972101;28;20034;-64
2022/04/01 06:36:13;;;;;;;63.38;10.93;;;;;;;25.55;33.47;89235.31;4971771;28;20118;-64
2022/04/01 06:39:09;;;;;;;58.05;11.38;;;;;;;25.61;33.71;89258.84;4971312;28;20409;-63
2022/04/01 06:41:46;;;;;;;59.03;10.95;;;;;;;25.09;33.97;89229.50;4971467;28;20125;-63
2022/04/01 06:44:11;;;;;;;58.53;10.23;;;;;;;25.88;32.90;89233.81;4969877;28;20041;-63
2022/04/01 06:46:37;;;;;;;58.17;10.55;;;;;;;28.00;31.09;89227.94;4971674;28;20114;-64
2022/04/01 06:49:08;;;;;;;61.38;11.10;;;;;;;27.97;31.74;89240.53;4971816;28;20031;-64
2022/04/01 06:51:36;;;;;;;63.95;10.30;;;;;;;29.66;29.25;89250.81;4971989;28;20416;-64
2022/04/01 06:54:01;;;;;;;56.08;10.20;;;;;;;27.72;30.57;89247.03;4971820;28;20027;-63
2022/04/01 06:56:27;;;;;;;61.08;9.60;;;;;;;27.08;31.03;89257.06;4971832;28;20031;-63
2022/04/01 06:58:52;;;;;;;56.15;10.32;;;;;;;25.97;31.45;89242.03;4971442;28;20031;-64
2022/04/01 07:01:18;;;;;;;44.63;8.15;;;;;;;25.93;31.33;89274.13;4971538;28;20097;-64
2022/04/01 07:03:44;;;;;;;63.17;10.73;;;;;;;27.11;30.60;89250.69;4971330;28;20023;-63
2022/04/01 07:06:09;;;;;;;47.53;9.70;;;;;;;29.54;28.53;89238.91;4971760;28;20059;-61
2022/04/01 07:08:35;;;;;;;58.97;9.50;;;;;;;27.66;29.51;89261.78;4970092;28;20034;-63
2022/04/01 07:11:01;;;;;;;48.95;8.10;;;;;;;27.30;29.98;89259.69;4970886;28;20042;-64
2022/04/01 07:13:26;;;;;;;44.70;8.93;;;;;;;27.47;29.96;89258.22;4970435;28;20043;-62
2022/04/01 07:15:52;;;;;;;41.47;9.00;;;;;;;27.48;29.75;89259.75;4971565;28;20019;-61
2022/04/01 07:18:18;;;;;;;47.65;9.32;;;;;;;26.14;31.47;89260.94;4972794;28;20034;-64
2022/04/01 07:20:45;;;;;;;50.70;9.00;;;;;;;26.06;31.21;89276.03;4974911;28;20109;-64
2022/04/01 07:23:11;;;;;;;54.75;9.98;;;;;;;26.31;31.76;89247.88;4974645;28;20038;-62
2022/04/01 07:25:37;;;;;;;52.17;9.50;;;;;;;27.58;30.38;89253.06;4974949;28;20050;-62
2022/04/01 07:28:02;;;;;;;45.63;9.80;;;;;;;29.39;28.29;89268.19;4974756;28;20524;-62
2022/04/01 07:30:28;;;;;;;52.10;9.07;;;;;;;30.60;26.99;89262.91;4974866;28;20416;-62
2022/04/01 07:32:58;;;;;;;45.45;9.00;;;;;;;27.51;29.49;89263.53;4974729;28;20039;-61
2022/04/01 07:35:25;;;;;;;55.83;8.93;;;;;;;28.88;28.81;89260.78;4975056;28;20030;-61
2022/04/01 07:37:51;;;;;;;49.92;8.73;;;;;;;28.40;28.93;89265.25;4974796;28;20069;-63
2022/04/01 07:40:18;;;;;;;49.15;8.30;;;;;;;29.26;27.94;89273.88;4973393;28;20027;-62
2022/04/01 07:42:44;;;;;;;53.05;9.35;;;;;;;29.18;28.00;89248.03;4974124;28;20125;-62
2022/04/01 07:45:11;;;;;;;45.40;8.98;;;;;;;26.99;30.21;89287.03;4974762;28;20038;-62
2022/04/01 07:47:37;;;;;;;54.25;8.57;;;;;;;27.67;30.38;89277.72;4974604;28;20042;-63
2022/04/01 07:50:07;;;;;;;54.63;9.63;;;;;;;28.82;28.73;89279.78;4974530;28;20038;-62
2022/04/01 07:52:33;;;;;;;42.72;8.10;;;;;;;29.88;26.10;89262.28;4979053;28;20420;-63
2022/04/01 07:54:59;;;;;;;52.55;8.45;;;;;;;30.22;27.53;89271.94;4993864;28;20031;-64
2022/04/01 07:57:24;;;;;;;52.53;9.02;;;;;;;27.83;29.09;89281.38;4992964;28;20030;-63
2022/04/01 07:59:50;;;;;;;47.83;9.63;;;;;;;29.05;28.19;89269.41;4993211;28;20381;-63
2022/04/01 08:02:16;;;;;;;39.25;9.80;;;;;;;29.49;28.01;89273.16;4993180;28;20117;-63
2022/04/01 08:04:42;;;;;;;51.88;8.90;;;;;;;29.30;27.96;89290.88;4993465;28;20062;-63
2022/04/01 08:07:08;;;;;;;45.55;8.32;;;;;;;30.78;26.92;89285.97;4993807;28;20065;-63
2022/04/01 08:09:35;;;;;;;48.22;8.55;;;;;;;32.04;25.83;89270.41;4993278;28;20547;-63
2022/04/01 08:12:03;;;;;;;55.97;9.52;;;;;;;31.99;25.88;89276.56;4992241;28;20045;-63
2022/04/01 08:14:29;;;;;;;62.97;10.05;;;;;;;30.78;27.21;89267.50;4982970;28;20072;-63
2022/04/01 08:16:56;;;;;;;52.70;8.63;;;;;;;31.20;26.64;89267.19;4974373;28;20030;-63
2022/04/01 08:19:22;;;;;;;49.55;8.95;;;;;;;32.15;24.48;89270.53;4973400;28;20080;-63
2022/04/01 08:21:49;;;;;;;44.40;7.90;;;;;;;31.44;24.92;89256.06;4972514;28;20488;-62
2022/04/01 08:24:16;;;;;;;54.05;8.38;;;;;;;32.97;23.19;89249.91;4973316;28;20042;-62
2022/04/01 08:26:41;;;;;;;49.58;8.73;;;;;;;32.97;23.32;89274.69;4973756;28;20512;-61
2022/04/01 08:29:07;;;;;;;50.25;9.45;;;;;;;34.98;22.46;89266.09;4973167;28;20109;-61
2022/04/01 08:31:33;;;;;;;45.55;8.55;;;;;;;33.12;23.96;89273.81;4977365;28;20022;-61
2022/04/01 08:33:59;;;;;;;58.08;9.70;;;;;;;32.50;25.01;89264.19;4993463;28;20121;-61
2022/04/01 08:36:26;;;;;;;52.33;9.40;;;;;;;31.08;24.42;89253.72;4993118;28;20026;-60
2022/04/01 08:38:51;;;;;;;47.30;9.32;;;;;;;31.58;25.41;89268.25;4993087;28;20034;-59
2022/04/01 08:41:22;;;;;;;55.05;9.35;;;;;;;30.49;26.83;89270.19;4992034;28;20026;-59
2022/04/01 08:43:50;;;;;;;51.92;8.32;;;;;;;30.24;26.11;89244.03;4992511;28;20040;-59
2022/04/01 08:46:18;;;;;;;47.05;9.40;;;;;;;27.49;29.13;89238.66;4992729;28;20038;-60
2022/04/01 08:48:44;;;;;;;53.00;14.77;;;;;;;30.42;26.39;89239.13;4993008;28;20565;-60
2022/04/01 08:51:10;;;;;;;46.45;8.43;;;;;;;28.08;27.97;89248.25;4993035;28;20109;-60
2022/04/01 08:53:41;;;;;;;46.90;8.80;;;;;;;29.59;27.71;89245.72;4993226;28;20065;-60
2022/04/01 08:56:08;;;;;;;49.58;8.60;;;;;;;30.94;26.15;89250.53;4993300;28;20037;-60
2022/04/01 08:58:34;;;;;;;44.60;8.55;;;;;;;32.26;25.10;89256.16;4992602;28;20030;-59
2022/04/01 09:01:02;;;;;;;47.63;9.13;;;;;;;30.23;26.50;89242.53;4992808;28;20038;-59
2022/04/01 09:03:28;;;;;;;56.28;9.30;;;;;;;29.02;27.24;89245.66;4992784;28;20497;-59
2022/04/01 09:05:57;;;;;;;44.97;8.38;;;;;;;29.74;27.05;89255.50;4992606;28;20080;-60
2022/04/01 09:08:25;;;;;;;51.22;8.60;;;;;;;28.71;28.40;89245.88;4992183;28;20042;-60
2022/04/01 09:10:57;;;;;;;47.50;9.30;;;;;;;28.36;29.01;89245.53;4991371;28;20018;-60
2022/04/01 09:13:28;;;;;;;48.85;8.48;;;;;;;30.53;26.74;89246.06;4991342;28;20054;-59
2022/04/01 09:15:54;;;;;;;46.30;9.43;;;;;;;31.58;25.44;89238.03;4992725;28;20073;-59
2022/04/01 09:18:52;;;;;;;57.85;9.70;;;;;;;28.62;27.47;89235.75;4991991;28;20492;-59
2022/04/01 09:21:17;;;;;;;49.38;8.80;;;;;;;30.54;25.32;89229.13;4940426;28;20054;-60
2022/04/01 09:23:47;;;;;;;55.55;9.30;;;;;;;28.94;26.71;89234.31;4972655;28;20023;-60
2022/04/01 09:26:13;;;;;;;42.55;8.00;;;;;;;29.54;26.07;89227.94;4982005;28;20030;-60
2022/04/01 09:28:43;;;;;;;44.22;8.05;;;;;;;28.61;26.44;89226.78;4991580;28;20023;-59
2022/04/01 09:31:12;;;;;;;38.88;7.85;;;;;;;28.27;27.02;89225.19;4990675;28;20065;-60
2022/04/01 09:33:43;;;;;;;34.10;7.07;;;;;;;28.39;27.83;89228.94;4990679;28;20038;-59
2022/04/01 09:36:13;;;;;;;36.05;6.78;;;;;;;28.79;26.02;89250.59;4990619;28;20026;-60
2022/04/01 09:38:39;;;;;;;53.60;9.35;;;;;;;28.88;26.63;89223.22;4991782;28;20022;-60
2022/04/01 09:41:07;;;;;;;45.45;6.85;;;;;;;28.19;27.10;89248.56;4991386;28;20528;-58
2022/04/01 09:43:41;;;;;;;48.13;8.48;;;;;;;27.96;27.42;89203.47;4992267;28;20045;-59
2022/04/01 09:46:22;;;;;;;50.72;7.38;;;;;;;27.91;27.37;89257.97;4992037;28;20109;-59
2022/04/01 09:48:48;;;;;;;37.53;7.78;;;;;;;27.70;27.48;89238.53;4991861;28;20150;-59
2022/04/01 09:51:14;;;;;;;47.88;8.00;;;;;;;26.82;28.52;89229.19;4991446;28;20512;-58
2022/04/01 09:53:49;;;;;;;46.00;7.63;;;;;;;27.84;27.48;89225.50;4990999;28;20034;-59
2022/04/01 09:56:14;;;;;;;52.05;7.60;;;;;;;27.01;28.08;89241.75;4991092;28;20385;-59
2022/04/01 09:58:40;;;;;;;38.25;7.43;;;;;;;24.79;29.99;89217.97;4991541;28;20061;-59
2022/04/01 10:01:08;;;;;;;48.88;9.18;;;;;;;23.71;31.91;89218.03;4991225;28;20038;-59
2022/04/01 10:03:33;;;;;;;37.30;7.40;;;;;;;22.90;32.75;89217.00;4991759;28;20041;-59
2022/04/01 10:05:59;;;;;;;29.95;7.10;;;;;;;22.55;33.69;89239.50;4991281;28;20105;-58
2022/04/01 10:08:26;;;;;;;25.60;5.82;;;;;;;24.11;31.86;89251.03;4991251;28;20495;-60
2022/04/01 10:10:52;;;;;;;42.85;8.15;;;;;;;25.26;30.55;89225.41;4991080;28;20038;-60
2022/04/01 10:13:32;;;;;;;48.45;10.85;;;;;;;26.95;29.32;89229.84;4991607;28;20056;-60
2022/04/01 10:15:59;;;;;;;45.28;8.00;;;;;;;26.33;31.19;89237.25;4991625;28;20065;-60
2022/04/01 10:18:25;;;;;;;48.10;7.65;;;;;;;27.03;29.15;89214.00;4991749;28;20092;-61
2022/04/01 10:20:54;;;;;;;58.13;12.90;;;;;;;28.61;28.08;89209.59;4991293;28;20030;-61
2022/04/01 10:23:24;;;;;;;35.72;7.47;;;;;;;29.89;27.63;89208.19;4991057;28;20044;-60
2022/04/01 10:26:13;;;;;;;40.28;7.50;;;;;;;26.61;31.45;89221.84;4990667;28;20102;-60
2022/04/01 10:28:40;;;;;;;63.15;23.80;;;;;;;27.96;30.67;89219.88;4991474;28;20030;-60
2022/04/01 10:31:13;;;;;;;40.60;8.43;;;;;;;30.69;27.78;89201.69;4991488;28;20061;-59
2022/04/01 10:33:39;;;;;;;58.20;9.27;;;;;;;31.33;26.59;89209.19;4991558;28;20041;-59
2022/04/01 10:36:29;;;;;;;43.72;8.85;;;;;;;29.76;28.23;89231.13;4991104;28;20034;-60
2022/04/01 10:39:05;;;;;;;52.88;14.82;;;;;;;27.43;29.94;89214.66;4990999;28;20031;-61
2022/04/01 10:41:32;;;;;;;34.20;6.78;;;;;;;28.08;29.89;89196.31;4990837;28;20026;-60
2022/04/01 10:43:58;;;;;;;49.03;9.65;;;;;;;27.27;29.60;89195.06;4991496;28;20456;-62
2022/04/01 10:46:24;;;;;;;45.08;8.50;;;;;;;28.60;28.43;89197.91;4990746;28;20034;-61
2022/04/01 10:52:17;;;;;;;37.03;6.53;;;;;;;26.91;30.24;89223.03;4991498;28;20052;-60
2022/04/01 10:54:44;;;;;;;46.00;7.55;;;;;;;27.63;30.15;89195.16;4994673;28;20045;-60
2022/04/01 10:57:24;;;;;;;34.03;5.45;;;;;;;26.98;30.63;89234.41;4994969;28;20030;-61
2022/04/01 10:59:51;;;;;;;35.45;5.28;;;;;;;25.29;33.01;89226.50;4994907;28;20053;-59
2022/04/01 11:02:21;;;;;;;32.78;5.97;;;;;;;24.93;33.44;89232.28;4995078;28;20535;-60
2022/04/01 11:04:50;;;;;;;26.73;6.13;;;;;;;26.18;32.41;89235.06;4994830;28;20062;-60
2022/04/01 11:07:22;;;;;;;41.55;6.63;;;;;;;26.52;32.47;89231.50;4994272;28;20030;-60
2022/04/01 11:09:53;;;;;;;31.05;9.15;;;;;;;25.79;33.66;89197.56;4994579;28;20034;-60
2022/04/01 11:12:21;;;;;;;29.23;7.38;;;;;;;26.17;33.56;89194.63;4993887;28;20458;-60
2022/04/01 11:14:53;;;;;;;30.35;7.82;;;;;;;25.55;33.84;89183.59;4994665;28;20109;-60
2022/04/01 11:17:19;;;;;;;23.40;4.80;;;;;;;26.06;33.38;89189.59;4994535;28;20525;-60
2022/04/01 11:20:03;;;;;;;16.60;4.32;;;;;;;26.79;32.47;89184.47;4994654;28;20060;-59
2022/04/01 11:22:42;;;;;;;24.73;4.28;;;;;;;27.09;32.28;89182.16;4994647;28;20031;-59
2022/04/01 11:25:12;;;;;;;25.27;4.65;;;;;;;26.86;32.50;89172.53;4994424;28;20088;-60
2022/04/01 11:27:57;;;;;;;27.13;4.80;;;;;;;27.33;31.89;89142.16;4994776;28;20034;-60
2022/04/01 11:30:33;;;;;;;23.88;5.80;;;;;;;28.29;30.46;89156.38;4994467;28;20093;-61
2022/04/01 11:33:19;;;;;;;21.60;4.47;;;;;;;26.36;32.34;89162.81;4994392;28;20030;-61
2022/04/01 11:35:49;;;;;;;14.13;3.40;;;;;;;24.90;33.64;89171.38;4994449;28;20080;-59
2022/04/01 11:38:18;;;;;;;25.35;5.63;;;;;;;24.28;34.54;89167.47;4993008;28;20460;-59
2022/04/01 11:40:45;;;;;;;26.10;4.78;;;;;;;23.33;35.39;89179.88;4993760;28;20034;-59